Time;durP1;ratioP1;P1;durP2;ratioP2;P2;SDS_P1;SDS_P2;PMS_P1;PMS_P2;Temp;Humidity;BMP_temperature;BMP_pressure;BME280_temperature;BME280_humidity;BME280_pressure;Samples;Min_cycle;Max_cycle;Signal;HPM_P1;HPM_P2
2023/01/13 00:00:07;;;;;;;8.50;7.23;;;;;;;4.75;100.00;95210.69;5057690;28;20446;-84
2023/01/13 00:02:36;;;;;;;9.80;6.27;;;;;;;4.76;100.00;95216.72;5053723;28;20433;-84
2023/01/13 00:05:02;;;;;;;11.07;7.47;;;;;;;4.86;100.00;95207.47;5054177;28;20769;-84
2023/01/13 00:07:30;;;;;;;13.00;8.60;;;;;;;4.89;100.00;95217.69;5054123;28;20433;-84
2023/01/13 00:09:56;;;;;;;10.10;7.40;;;;;;;4.87;100.00;95214.34;5053729;28;20453;-83
2023/01/13 00:12:23;;;;;;;9.53;6.77;;;;;;;4.81;100.00;95215.53;5054001;28;20857;-83
2023/01/13 00:14:50;;;;;;;10.47;6.80;;;;;;;4.78;100.00;95217.47;5053706;28;20908;-84
2023/01/13 00:20:43;;;;;;;9.87;7.20;;;;;;;4.73;100.00;95214.28;5053623;28;20393;-84
2023/01/13 00:23:09;;;;;;;9.73;8.73;;;;;;;4.61;100.00;95214.03;5053517;28;20487;-83
2023/01/13 00:25:36;;;;;;;8.03;7.13;;;;;;;4.63;100.00;95221.78;5053712;28;20862;-84
2023/01/13 00:28:03;;;;;;;12.27;9.10;;;;;;;4.68;100.00;95216.31;5053498;28;20448;-84
2023/01/13 00:30:30;;;;;;;9.37;8.10;;;;;;;4.66;100.00;95213.81;5053659;28;20453;-84
2023/01/13 00:32:57;;;;;;;10.23;7.23;;;;;;;4.66;100.00;95216.41;5053225;28;20445;-83
2023/01/13 00:35:23;;;;;;;10.03;8.03;;;;;;;4.69;100.00;95218.84;5053599;28;20792;-84
2023/01/13 00:37:52;;;;;;;8.60;7.53;;;;;;;4.68;100.00;95213.72;5053567;28;20481;-83
2023/01/13 00:40:19;;;;;;;8.90;7.73;;;;;;;4.75;100.00;95222.84;5053178;28;21014;-84
2023/01/13 00:45:29;;;;;;;10.17;8.23;;;;;;;4.91;100.00;95216.66;5053456;28;20514;-84
2023/01/13 00:47:56;;;;;;;11.60;8.20;;;;;;;4.94;100.00;95219.13;5053173;28;20448;-84
2023/01/13 00:50:23;;;;;;;11.00;8.00;;;;;;;4.89;100.00;95218.50;5053581;28;20449;-84
2023/01/13 00:52:50;;;;;;;10.93;8.23;;;;;;;4.92;100.00;95215.78;5053198;28;20932;-84
2023/01/13 00:55:18;;;;;;;9.53;6.80;;;;;;;4.86;100.00;95215.25;5053092;28;20429;-84
2023/01/13 00:57:45;;;;;;;11.43;8.47;;;;;;;4.85;100.00;95210.97;5051292;28;20484;-84
2023/01/13 01:00:13;;;;;;;11.77;8.87;;;;;;;4.84;100.00;95212.75;5018658;28;20640;-83
2023/01/13 01:06:05;;;;;;;8.17;7.37;;;;;;;4.92;100.00;95204.53;5052408;28;20432;-84
2023/01/13 01:08:32;;;;;;;10.00;8.03;;;;;;;4.95;100.00;95205.19;5053300;28;20516;-83
2023/01/13 01:11:06;;;;;;;19.63;11.30;;;;;;;4.94;100.00;95207.88;5052961;28;20519;-83
2023/01/13 01:13:33;;;;;;;11.07;8.07;;;;;;;4.86;100.00;95202.25;5053479;28;20426;-83
2023/01/13 01:16:00;;;;;;;10.07;8.07;;;;;;;4.86;100.00;95189.25;5034878;28;20944;-84
2023/01/13 01:18:26;;;;;;;12.20;8.47;;;;;;;4.89;100.00;95202.91;5053231;28;20445;-84
2023/01/13 01:20:53;;;;;;;12.70;9.20;;;;;;;4.87;100.00;95190.94;5052936;28;20989;-83
2023/01/13 01:23:20;;;;;;;8.80;7.80;;;;;;;4.88;100.00;95195.19;5054066;28;20434;-84
2023/01/13 01:25:47;;;;;;;11.70;8.37;;;;;;;4.96;100.00;95193.84;5052771;28;20442;-83
2023/01/13 01:28:17;;;;;;;10.00;8.50;;;;;;;5.01;100.00;95192.75;5053151;28;20444;-84
2023/01/13 01:30:44;;;;;;;13.00;8.37;;;;;;;5.03;100.00;95202.13;5052999;28;20533;-83
2023/01/13 01:33:10;;;;;;;10.13;7.83;;;;;;;4.93;100.00;95194.03;5051226;28;20449;-84
2023/01/13 01:35:40;;;;;;;9.37;7.87;;;;;;;4.92;100.00;95196.72;5052869;28;20479;-84
2023/01/13 01:38:06;;;;;;;8.57;6.97;;;;;;;4.89;100.00;95189.91;5053082;28;20534;-84
2023/01/13 01:40:33;;;;;;;8.10;7.03;;;;;;;4.84;100.00;95191.13;5052786;28;20823;-84
2023/01/13 01:45:46;;;;;;;13.10;8.70;;;;;;;4.93;100.00;95185.41;5052975;28;20853;-83
2023/01/13 01:48:12;;;;;;;9.50;7.33;;;;;;;4.94;100.00;95180.13;5052969;28;20453;-84
2023/01/13 01:50:40;;;;;;;9.40;7.50;;;;;;;4.94;100.00;95182.72;5053335;28;20453;-84
2023/01/13 01:53:12;;;;;;;26.90;17.77;;;;;;;5.03;100.00;95185.69;5019426;28;20449;-84
2023/01/13 01:55:40;;;;;;;11.20;9.00;;;;;;;5.05;100.00;95176.88;5056278;28;20429;-84
2023/01/13 01:58:11;;;;;;;9.80;7.13;;;;;;;4.93;100.00;95194.03;5056390;28;20485;-84
2023/01/13 02:00:38;;;;;;;8.77;7.57;;;;;;;4.85;100.00;95180.63;5056520;28;20441;-84
2023/01/13 02:03:08;;;;;;;10.50;8.37;;;;;;;4.88;100.00;95184.81;5055980;28;20499;-83
2023/01/13 02:05:35;;;;;;;30.57;19.87;;;;;;;4.94;100.00;95185.31;5037847;28;20444;-84
2023/01/13 02:08:02;;;;;;;13.93;9.53;;;;;;;4.97;100.00;95179.94;5056196;28;20441;-84
2023/01/13 02:17:46;;;;;;;12.77;9.70;;;;;;;4.98;100.00;95186.81;5055810;28;20539;-84
2023/01/13 02:20:51;;;;;;;21.53;14.53;;;;;;;5.00;100.00;95178.06;5055786;28;20433;-84
2023/01/13 02:27:23;;;;;;;8.37;7.53;;;;;;;4.82;100.00;95178.19;5055926;28;20421;-84
2023/01/13 02:33:06;;;;;;;10.60;8.27;;;;;;;4.82;100.00;95174.75;4955437;29;20433;-83
2023/01/13 02:35:40;;;;;;;10.57;8.00;;;;;;;4.89;100.00;95179.50;4955378;29;20473;-83
2023/01/13 02:38:11;;;;;;;9.30;7.87;;;;;;;4.88;100.00;95177.84;4955443;29;20512;-83
2023/01/13 02:40:46;;;;;;;38.87;23.57;;;;;;;4.86;100.00;95177.09;4924656;29;20442;-84
2023/01/13 02:46:13;;;;;;;25.37;15.73;;;;;;;4.97;100.00;95179.09;4955327;28;20585;-83
2023/01/13 02:48:44;;;;;;;37.20;20.77;;;;;;;4.96;100.00;95188.66;4955451;29;20434;-83
2023/01/13 02:51:15;;;;;;;18.20;13.20;;;;;;;4.93;100.00;95180.19;4955328;29;20469;-84
2023/01/13 02:57:07;;;;;;;16.57;11.57;;;;;;;4.97;100.00;95179.94;4954447;29;20476;-83
2023/01/13 02:59:35;;;;;;;9.77;8.60;;;;;;;4.91;100.00;95180.25;4955031;29;20594;-84
2023/01/13 03:02:06;;;;;;;19.47;14.00;;;;;;;4.87;100.00;95181.38;4954781;29;20452;-84
2023/01/13 03:04:47;;;;;;;19.33;14.50;;;;;;;4.94;100.00;95169.72;4953743;28;20967;-84
2023/01/13 03:07:52;;;;;;;15.37;11.60;;;;;;;4.98;100.00;95178.16;4985033;28;20972;-83
2023/01/13 03:10:34;;;;;;;18.67;14.03;;;;;;;5.05;100.00;95176.03;5045129;28;20495;-83
2023/01/13 03:13:14;;;;;;;12.07;8.93;;;;;;;4.98;100.00;95181.59;5054773;28;20461;-84
2023/01/13 03:15:53;;;;;;;13.20;9.37;;;;;;;5.06;100.00;95183.75;5055307;28;20785;-84
2023/01/13 03:18:35;;;;;;;18.57;12.97;;;;;;;4.98;100.00;95181.59;5054678;28;20518;-84
2023/01/13 03:21:09;;;;;;;14.50;10.40;;;;;;;4.95;100.00;95178.34;5054988;28;20517;-84
2023/01/13 03:23:51;;;;;;;20.20;12.83;;;;;;;4.96;100.00;95178.25;5055133;28;20437;-84
2023/01/13 03:26:26;;;;;;;15.23;9.87;;;;;;;4.89;100.00;95173.47;5054529;28;20808;-84
2023/01/13 03:29:01;;;;;;;13.47;12.03;;;;;;;4.87;100.00;95183.97;5054435;28;20950;-83
2023/01/13 03:31:31;;;;;;;14.13;11.60;;;;;;;4.91;100.00;95182.03;5055183;28;20449;-84
2023/01/13 03:34:04;;;;;;;16.47;13.00;;;;;;;4.87;100.00;95177.94;5054580;28;20894;-84
2023/01/13 03:36:34;;;;;;;20.27;13.27;;;;;;;4.93;100.00;95186.25;5054277;28;20986;-85
2023/01/13 03:39:10;;;;;;;11.90;8.40;;;;;;;4.89;100.00;95186.47;5054723;28;20444;-84
2023/01/13 03:41:42;;;;;;;20.17;15.53;;;;;;;4.91;100.00;95180.25;5054775;28;20433;-84
2023/01/13 03:44:22;;;;;;;23.30;17.57;;;;;;;5.04;100.00;95185.59;5054172;28;20437;-84
2023/01/13 03:46:57;;;;;;;17.70;15.80;;;;;;;5.05;100.00;95186.44;5054516;28;20444;-84
2023/01/13 03:49:32;;;;;;;16.10;12.57;;;;;;;5.01;100.00;95188.38;5054549;28;20445;-84
2023/01/13 03:52:05;;;;;;;16.00;12.63;;;;;;;5.05;100.00;95187.28;5054384;28;20433;-84
2023/01/13 03:54:38;;;;;;;12.77;10.40;;;;;;;5.08;100.00;95186.25;5054378;28;20943;-84
2023/01/13 03:57:20;;;;;;;11.37;9.67;;;;;;;4.96;100.00;95187.81;5052405;28;20477;-84
2023/01/13 03:59:51;;;;;;;8.70;7.80;;;;;;;4.97;100.00;95185.13;5054447;28;20786;-84
2023/01/13 04:02:28;;;;;;;13.67;11.97;;;;;;;5.05;100.00;95189.03;5054380;28;20534;-84
2023/01/13 04:05:01;;;;;;;15.20;10.73;;;;;;;5.08;100.00;95181.06;5054007;28;20433;-83
2023/01/13 04:07:37;;;;;;;11.70;10.30;;;;;;;5.14;100.00;95185.88;5054072;28;20449;-84
2023/01/13 04:10:07;;;;;;;13.60;11.43;;;;;;;5.21;100.00;95185.47;5054427;28;20491;-84
2023/01/13 04:13:00;;;;;;;12.00;9.97;;;;;;;5.21;100.00;95187.22;5035960;28;20444;-84
2023/01/13 04:15:30;;;;;;;8.87;8.00;;;;;;;5.28;100.00;95183.31;5053703;28;20426;-84
2023/01/13 04:18:02;;;;;;;13.97;9.50;;;;;;;5.21;99.57;95192.44;5054193;28;20542;-84
2023/01/13 04:20:30;;;;;;;10.77;9.63;;;;;;;5.27;100.00;95194.66;5053781;28;21001;-83
2023/01/13 04:26:19;;;;;;;9.90;8.67;;;;;;;5.36;99.86;95207.13;5053208;28;20505;-84
2023/01/13 04:28:45;;;;;;;8.50;7.60;;;;;;;5.37;99.50;95198.38;5053539;28;20528;-84
2023/01/13 04:31:12;;;;;;;8.43;7.60;;;;;;;5.35;99.10;95205.44;5054282;28;20491;-84
2023/01/13 04:33:39;;;;;;;8.30;7.07;;;;;;;5.33;99.81;95212.50;5053625;28;20426;-84
2023/01/13 04:36:08;;;;;;;8.63;6.87;;;;;;;5.15;99.85;95201.41;5053800;28;20437;-84
2023/01/13 04:38:35;;;;;;;7.60;6.90;;;;;;;5.15;99.88;95209.22;5035599;28;20562;-84
2023/01/13 04:41:01;;;;;;;7.53;6.83;;;;;;;5.16;100.00;95210.03;5036372;28;20450;-84
2023/01/13 04:43:28;;;;;;;7.60;6.90;;;;;;;5.22;100.00;95212.31;5059774;28;20503;-84
2023/01/13 04:45:55;;;;;;;13.20;10.40;;;;;;;5.33;100.00;95209.91;5062903;28;20481;-84
2023/01/13 04:48:22;;;;;;;15.37;10.30;;;;;;;5.32;99.96;95210.00;5055543;28;20516;-84
2023/01/13 04:50:49;;;;;;;22.47;15.00;;;;;;;5.34;100.00;95214.19;5053659;28;20449;-84
2023/01/13 04:53:17;;;;;;;72.97;35.67;;;;;;;5.38;99.29;95212.22;5034962;28;20445;-84
2023/01/13 04:55:48;;;;;;;24.53;16.77;;;;;;;5.32;99.95;95210.00;5053613;28;20514;-84
2023/01/13 04:58:15;;;;;;;40.33;23.30;;;;;;;5.36;99.75;95203.69;5053769;28;20468;-84
2023/01/13 05:00:42;;;;;;;53.53;39.33;;;;;;;5.52;100.00;95214.88;5052195;28;20443;-85
2023/01/13 05:03:09;;;;;;;33.60;20.63;;;;;;;5.55;99.36;95220.72;5051408;28;20203;-85
2023/01/13 05:05:36;;;;;;;28.00;22.30;;;;;;;5.56;98.44;95218.94;5053323;28;20438;-84
2023/01/13 05:08:03;;;;;;;19.10;16.77;;;;;;;5.49;98.81;95217.63;5053346;28;20452;-85
2023/01/13 05:10:31;;;;;;;24.23;19.30;;;;;;;5.46;98.72;95217.81;5053631;28;20853;-85
2023/01/13 05:19:41;;;;;;;13.83;12.17;;;;;;;5.18;99.49;95216.81;5052184;28;20471;-83
2023/01/13 05:27:37;;;;;;;13.50;11.53;;;;;;;5.44;100.00;95215.28;5054594;28;20432;-90
2023/01/13 05:30:06;;;;;;;14.25;11.40;;;;;;;5.38;99.07;95218.28;5057526;28;20443;-85
2023/01/13 05:32:33;;;;;;;16.57;11.37;;;;;;;5.39;98.83;95222.53;5057698;28;20198;-91
2023/01/13 05:34:59;;;;;;;12.20;10.40;;;;;;;5.36;99.84;95214.91;5057830;28;20440;-95
2023/01/13 05:37:26;;;;;;;14.20;10.97;;;;;;;5.36;99.01;95225.34;5057265;28;20461;-87
2023/01/13 05:46:39;;;;;;;12.67;9.80;;;;;;;5.26;100.00;95230.25;5016298;28;20477;-82
2023/01/13 05:49:06;;;;;;;12.60;9.77;;;;;;;5.28;99.75;95230.16;5056658;28;20469;-85
2023/01/13 05:51:32;;;;;;;16.20;11.83;;;;;;;5.30;99.60;95233.50;5056695;28;20461;-89
2023/01/13 05:53:59;;;;;;;18.10;11.53;;;;;;;5.32;99.87;95234.25;5057737;28;20434;-89
2023/01/13 05:56:26;;;;;;;21.90;14.20;;;;;;;5.30;99.63;95236.09;5057700;28;20962;-90
2023/01/13 06:05:39;;;;;;;16.77;10.50;;;;;;;5.29;100.00;95245.69;5037347;28;20486;-88
2023/01/13 06:08:08;;;;;;;19.27;11.40;;;;;;;5.36;100.00;95240.94;5056780;28;20456;-88
2023/01/13 06:10:35;;;;;;;20.10;14.17;;;;;;;5.41;99.96;95236.31;5057593;28;20457;-90
2023/01/13 06:13:02;;;;;;;17.13;12.13;;;;;;;5.45;100.00;95247.38;5057352;28;20485;-91
2023/01/13 06:15:29;;;;;;;31.90;22.17;;;;;;;5.42;99.15;95248.38;5056960;28;20457;-90
2023/01/13 06:17:56;;;;;;;26.47;20.87;;;;;;;5.35;99.88;95252.28;5056705;28;20982;-90
2023/01/13 06:20:24;;;;;;;27.00;20.90;;;;;;;5.37;99.70;95250.41;5057026;28;20532;-91
2023/01/13 06:22:53;;;;;;;29.80;20.80;;;;;;;5.37;100.00;95250.41;5056423;28;20947;-92
2023/01/13 06:25:29;;;;;;;20.87;16.13;;;;;;;5.33;100.00;95254.13;5057146;28;20477;-91
2023/01/13 06:27:58;;;;;;;24.60;16.43;;;;;;;5.34;100.00;95255.81;5057022;28;20487;-92
2023/01/13 06:30:27;;;;;;;21.70;15.00;;;;;;;5.25;100.00;95251.16;5056850;28;20815;-91
2023/01/13 06:32:58;;;;;;;20.60;12.60;;;;;;;5.19;100.00;95254.91;5057260;28;20455;-90
2023/01/13 06:35:29;;;;;;;19.73;13.07;;;;;;;5.18;100.00;95255.00;5057433;28;20437;-91
2023/01/13 06:38:00;;;;;;;15.47;11.83;;;;;;;5.19;100.00;95254.09;5057479;28;20484;-90
2023/01/13 06:40:27;;;;;;;20.00;12.03;;;;;;;5.21;100.00;95260.91;5058006;28;20445;-91
2023/01/13 06:45:41;;;;;;;22.80;16.37;;;;;;;5.38;100.00;95259.06;5056865;28;20416;-91
2023/01/13 06:48:08;;;;;;;14.73;13.10;;;;;;;5.39;100.00;95258.97;5056778;28;20477;-92
2023/01/13 06:50:35;;;;;;;13.57;10.90;;;;;;;5.41;100.00;95261.47;5057207;28;20460;-91
2023/01/13 06:53:03;;;;;;;17.10;13.50;;;;;;;5.47;100.00;95263.72;5056863;28;20884;-91
2023/01/13 06:55:30;;;;;;;19.43;15.00;;;;;;;5.48;100.00;95257.59;5056373;28;20454;-91
2023/01/13 06:57:58;;;;;;;12.90;11.07;;;;;;;5.36;100.00;95255.72;5056451;28;20480;-91
2023/01/13 07:00:26;;;;;;;19.10;12.83;;;;;;;5.32;100.00;95262.88;5056158;28;20449;-90
2023/01/13 07:02:53;;;;;;;16.60;12.37;;;;;;;5.30;100.00;95259.53;5056383;28;20445;-91
2023/01/13 07:05:21;;;;;;;18.37;12.33;;;;;;;5.21;100.00;95267.88;5056139;28;20807;-91
2023/01/13 07:07:48;;;;;;;19.47;13.50;;;;;;;5.26;100.00;95263.22;5056259;28;20994;-90
2023/01/13 07:10:21;;;;;;;18.60;12.80;;;;;;;5.30;100.00;95259.53;5056159;28;20448;-91
2023/01/13 07:15:34;;;;;;;20.37;13.30;;;;;;;5.28;100.00;95257.00;5056115;28;20408;-91
2023/01/13 07:18:02;;;;;;;18.90;14.03;;;;;;;5.22;100.00;95251.34;5055898;28;20483;-90
2023/01/13 07:20:29;;;;;;;24.47;15.17;;;;;;;5.25;100.00;95254.59;5056253;28;20449;-91
2023/01/13 07:22:56;;;;;;;20.27;13.97;;;;;;;5.34;100.00;95250.59;5055956;28;20458;-91
2023/01/13 07:25:25;;;;;;;30.23;17.87;;;;;;;5.46;100.00;95252.47;5056134;28;20465;-91
2023/01/13 07:27:51;;;;;;;23.30;14.90;;;;;;;5.60;100.00;95252.50;5056375;28;20804;-91
2023/01/13 07:30:19;;;;;;;36.07;18.57;;;;;;;5.83;100.00;95263.31;5055601;28;20467;-93
2023/01/13 07:32:46;;;;;;;22.70;13.93;;;;;;;5.92;100.00;95261.94;5055943;28;20778;-90
2023/01/13 07:35:13;;;;;;;33.60;20.77;;;;;;;5.96;99.23;95256.47;5055735;28;20464;-90
2023/01/13 07:37:40;;;;;;;21.10;14.40;;;;;;;5.98;99.02;95257.19;5055516;28;20463;-90
2023/01/13 07:40:09;;;;;;;19.97;13.70;;;;;;;6.10;99.38;95263.44;5055950;28;20453;-90
2023/01/13 07:45:23;;;;;;;13.03;9.30;;;;;;;6.18;97.69;95259.44;5055624;28;20412;-92
2023/01/13 07:47:53;;;;;;;15.87;12.20;;;;;;;6.22;97.28;95250.50;5055539;28;20481;-91
2023/01/13 07:50:22;;;;;;;18.73;13.60;;;;;;;6.23;97.24;95256.53;5055180;28;20465;-89
2023/01/13 07:52:50;;;;;;;19.77;13.70;;;;;;;6.37;96.60;95263.50;5055389;28;20545;-91
2023/01/13 07:55:17;;;;;;;16.40;12.80;;;;;;;6.47;96.66;95262.00;5055567;28;20449;-90
2023/01/13 07:57:48;;;;;;;18.83;12.60;;;;;;;6.57;95.73;95259.63;5055339;28;20442;-90
2023/01/13 08:00:16;;;;;;;21.50;17.20;;;;;;;6.58;94.89;95261.31;5055207;28;20489;-91
2023/01/13 08:02:43;;;;;;;15.20;11.43;;;;;;;6.60;93.75;95267.25;5055182;28;20450;-91
2023/01/13 08:05:10;;;;;;;17.47;13.90;;;;;;;6.51;93.70;95266.09;5055443;28;20461;-90
2023/01/13 08:07:37;;;;;;;16.87;13.17;;;;;;;6.58;94.13;95269.13;5055661;28;20450;-88
2023/01/13 08:10:05;;;;;;;14.57;10.70;;;;;;;6.63;94.26;95270.50;5055852;28;20453;-95
2023/01/13 08:15:18;;;;;;;10.87;9.77;;;;;;;6.77;93.75;95272.25;5055352;28;20460;-92
2023/01/13 08:17:45;;;;;;;13.37;9.50;;;;;;;6.74;92.53;95273.28;5055610;28;20818;-92
2023/01/13 08:20:12;;;;;;;14.20;10.33;;;;;;;6.86;93.60;95270.81;5055443;28;20484;-91
2023/01/13 08:22:39;;;;;;;18.10;14.07;;;;;;;6.98;93.10;95275.28;5055175;28;20449;-92
2023/01/13 08:25:07;;;;;;;23.17;14.87;;;;;;;7.09;92.03;95271.03;5055749;28;20993;-93
2023/01/13 08:27:34;;;;;;;16.73;10.10;;;;;;;7.24;91.48;95271.81;5055296;28;20527;-91
2023/01/13 08:30:01;;;;;;;14.57;10.30;;;;;;;7.38;91.03;95274.34;5055447;28;20468;-91
2023/01/13 08:32:29;;;;;;;17.93;11.53;;;;;;;7.49;89.91;95276.22;5055107;28;20867;-92
2023/01/13 08:34:56;;;;;;;12.00;9.47;;;;;;;7.54;89.64;95274.16;5054780;28;20458;-92
2023/01/13 08:37:23;;;;;;;12.80;9.40;;;;;;;7.54;88.23;95278.56;5055704;28;20465;-92
2023/01/13 08:39:50;;;;;;;10.27;9.20;;;;;;;7.58;88.69;95280.84;5054745;28;20485;-93
2023/01/13 08:42:17;;;;;;;19.00;13.47;;;;;;;7.61;88.06;95274.59;5055124;28;20454;-93
2023/01/13 08:44:44;;;;;;;13.00;10.10;;;;;;;7.41;87.46;95268.06;5055196;28;20450;-92
2023/01/13 08:47:11;;;;;;;12.67;9.20;;;;;;;7.38;88.83;95266.50;5054613;28;20870;-93
2023/01/13 08:49:39;;;;;;;16.40;10.43;;;;;;;7.37;88.27;95267.44;5054729;28;20450;-93
2023/01/13 08:52:06;;;;;;;15.60;9.97;;;;;;;7.42;89.72;95267.13;5055097;28;20461;-92
2023/01/13 08:54:33;;;;;;;18.47;9.77;;;;;;;7.50;89.33;95259.59;5054812;28;20796;-92
2023/01/13 08:57:02;;;;;;;12.13;9.13;;;;;;;7.63;89.12;95273.53;5054896;28;20540;-92
2023/01/13 08:59:30;;;;;;;13.57;8.20;;;;;;;7.77;87.85;95264.75;5054709;28;20481;-93
2023/01/13 09:01:57;;;;;;;7.90;6.80;;;;;;;7.92;86.77;95266.34;5055126;28;20840;-94
2023/01/13 09:04:26;;;;;;;8.27;7.20;;;;;;;7.98;86.18;95265.91;5058860;28;20458;-91
2023/01/13 09:06:55;;;;;;;11.93;7.40;;;;;;;8.04;85.07;95264.66;5057668;28;20936;-92
2023/01/13 09:09:24;;;;;;;11.03;7.83;;;;;;;8.05;84.57;95263.72;5058747;28;20462;-93
2023/01/13 09:14:38;;;;;;;7.63;6.43;;;;;;;8.08;83.47;95263.50;5058850;28;20481;-92
2023/01/13 09:17:06;;;;;;;16.07;6.00;;;;;;;8.15;83.74;95261.31;5058915;28;20466;-92
2023/01/13 09:19:33;;;;;;;7.03;5.10;;;;;;;8.17;83.12;95260.25;5059244;28;20490;-92
2023/01/13 09:22:01;;;;;;;7.13;5.77;;;;;;;8.22;81.90;95265.16;5059429;28;20459;-92
2023/01/13 09:24:29;;;;;;;8.73;6.30;;;;;;;8.15;81.88;95254.31;5059417;28;20827;-93
2023/01/13 09:26:56;;;;;;;8.10;6.60;;;;;;;8.13;83.04;95250.13;5058711;28;20458;-92
2023/01/13 09:29:23;;;;;;;8.43;6.63;;;;;;;8.06;81.85;95250.53;5068886;28;20449;-90
2023/01/13 09:31:49;;;;;;;6.83;5.30;;;;;;;7.96;82.15;95254.72;5074096;28;20446;-90
2023/01/13 09:37:06;;;;;;;6.80;5.70;;;;;;;7.97;82.15;95245.13;5058400;28;20462;-92
2023/01/13 09:39:34;;;;;;;15.40;8.00;;;;;;;7.95;83.18;95247.84;5058338;28;21007;-93
2023/01/13 09:44:58;;;;;;;11.53;7.57;;;;;;;7.76;83.04;95248.25;5058008;28;20414;-92
2023/01/13 09:47:30;;;;;;;23.03;8.33;;;;;;;7.73;83.26;95243.22;5058146;28;20478;-93
2023/01/13 09:50:03;;;;;;;28.33;10.83;;;;;;;7.66;84.41;95246.38;5058289;28;20470;-87
2023/01/13 09:52:32;;;;;;;15.93;9.20;;;;;;;7.57;85.00;95254.84;5058038;28;20964;-92
2023/01/13 09:55:02;;;;;;;10.63;6.83;;;;;;;7.51;84.95;95245.63;5058441;28;21080;-92
2023/01/13 09:57:36;;;;;;;13.60;8.87;;;;;;;7.56;85.57;95242.72;5058372;28;20807;-93
2023/01/13 10:00:10;;;;;;;15.50;10.37;;;;;;;7.52;85.52;95242.09;5058155;28;20568;-93
2023/01/13 10:03:05;;;;;;;25.77;12.47;;;;;;;7.49;86.38;95244.03;5057931;28;20455;-93
2023/01/13 10:05:36;;;;;;;21.57;13.53;;;;;;;7.46;85.65;95243.31;5057545;28;20461;-92
2023/01/13 10:08:11;;;;;;;9.80;8.33;;;;;;;7.30;86.26;95234.84;5057891;28;20470;-93
2023/01/13 10:10:43;;;;;;;10.13;6.40;;;;;;;7.22;87.36;95241.50;5057216;28;20472;-87
2023/01/13 10:13:18;;;;;;;10.83;7.30;;;;;;;7.23;87.67;95240.56;5056795;28;20463;-87
2023/01/13 10:16:03;;;;;;;10.23;7.13;;;;;;;7.19;87.57;95232.09;5057173;28;20465;-90
2023/01/13 10:18:44;;;;;;;6.77;5.37;;;;;;;7.20;86.67;95231.16;5057058;28;20454;-90
2023/01/13 10:21:24;;;;;;;6.80;6.07;;;;;;;7.20;87.23;95228.56;5057559;28;20532;-90
2023/01/13 10:24:01;;;;;;;10.70;7.07;;;;;;;7.32;86.95;95229.53;5056178;28;20970;-89
2023/01/13 10:26:44;;;;;;;12.17;8.23;;;;;;;7.40;87.13;95225.47;5056899;28;20737;-87
2023/01/13 10:29:24;;;;;;;8.90;6.57;;;;;;;7.46;86.01;95230.25;5056747;28;20801;-89
2023/01/13 10:31:52;;;;;;;9.70;7.20;;;;;;;7.46;85.56;95229.44;5057172;28;20986;-90
2023/01/13 10:34:20;;;;;;;9.77;6.60;;;;;;;7.36;85.90;95217.94;5056821;28;20423;-86
2023/01/13 10:37:01;;;;;;;11.40;6.37;;;;;;;7.41;85.52;95228.91;5056815;28;20818;-91
2023/01/13 10:39:39;;;;;;;12.20;7.40;;;;;;;7.39;86.34;95230.78;5057088;28;20473;-86
2023/01/13 10:42:12;;;;;;;10.23;7.13;;;;;;;7.29;86.70;95212.31;5056995;28;20443;-89
2023/01/13 10:44:48;;;;;;;8.67;6.90;;;;;;;7.49;87.83;95217.94;5056818;28;20488;-92
2023/01/13 10:47:21;;;;;;;19.10;13.70;;;;;;;7.51;86.56;95216.06;5055964;28;20494;-90
2023/01/13 10:50:00;;;;;;;14.53;9.50;;;;;;;7.49;86.81;95217.94;5056934;28;20545;-87
2023/01/13 10:52:29;;;;;;;11.90;8.40;;;;;;;7.38;86.73;95210.84;5056118;28;20433;-90
2023/01/13 10:54:58;;;;;;;12.00;8.70;;;;;;;7.31;87.66;95204.38;5056854;28;20457;-90
2023/01/13 10:57:26;;;;;;;7.50;6.70;;;;;;;7.33;86.67;95208.53;5056851;28;20515;-91
2023/01/13 10:59:53;;;;;;;8.97;7.17;;;;;;;7.32;87.45;95209.47;5057198;28;20504;-91
2023/01/13 11:02:26;;;;;;;8.37;5.90;;;;;;;7.31;87.59;95213.03;5057315;28;20461;-91
2023/01/13 11:05:02;;;;;;;11.83;7.73;;;;;;;7.35;87.21;95203.22;5057238;28;20450;-90
2023/01/13 11:07:32;;;;;;;10.00;7.00;;;;;;;7.36;88.00;95208.34;5056259;28;20489;-90
2023/01/13 11:10:19;;;;;;;9.30;6.80;;;;;;;7.25;88.24;95202.16;5055756;28;20960;-90
2023/01/13 11:12:53;;;;;;;9.87;6.57;;;;;;;7.23;87.96;95199.66;5056386;28;20450;-90
2023/01/13 11:15:24;;;;;;;8.57;6.53;;;;;;;7.22;88.12;95189.28;5056217;28;20430;-90
2023/01/13 11:17:59;;;;;;;8.33;6.93;;;;;;;7.20;88.03;95192.00;5056099;28;20940;-90
2023/01/13 11:20:32;;;;;;;8.73;7.40;;;;;;;7.25;87.94;95194.34;5055781;28;20484;-91
2023/01/13 11:23:03;;;;;;;18.80;6.60;;;;;;;7.18;86.98;95187.84;5056047;28;20488;-90
2023/01/13 11:25:41;;;;;;;8.90;6.57;;;;;;;7.28;87.56;95188.91;5055287;28;20959;-90
2023/01/13 11:28:21;;;;;;;13.90;8.03;;;;;;;7.42;87.09;95188.81;5056187;28;20461;-89
2023/01/13 11:30:53;;;;;;;15.93;8.43;;;;;;;7.46;87.26;95188.50;5056278;28;20454;-90
2023/01/13 11:33:30;;;;;;;10.80;8.30;;;;;;;7.48;86.92;95183.16;5046841;28;20463;-89
2023/01/13 11:36:08;;;;;;;10.90;8.43;;;;;;;7.48;86.94;95185.78;5037582;28;20944;-89
2023/01/13 11:38:44;;;;;;;7.87;6.50;;;;;;;7.54;87.10;95192.38;5053623;28;20461;-90
2023/01/13 11:41:22;;;;;;;11.53;8.00;;;;;;;7.54;86.30;95184.53;5055532;28;21022;-90
2023/01/13 11:43:54;;;;;;;8.97;7.07;;;;;;;7.62;86.95;95177.84;5055889;28;20786;-90
2023/01/13 11:46:26;;;;;;;14.37;8.80;;;;;;;7.74;86.21;95176.16;5055527;28;20445;-90
2023/01/13 11:48:55;;;;;;;11.50;6.23;;;;;;;7.78;85.39;95175.84;5055844;28;20508;-90
2023/01/13 11:51:33;;;;;;;8.63;7.10;;;;;;;7.73;85.19;95175.31;5055406;28;21644;-88
2023/01/13 11:54:21;;;;;;;12.27;8.30;;;;;;;7.86;85.68;95175.31;5055760;28;20808;-91
2023/01/13 11:57:11;;;;;;;12.53;8.70;;;;;;;8.15;91.73;95175.06;5055268;28;20463;-84
2023/01/13 11:59:52;;;;;;;8.50;6.27;;;;;;;8.19;85.15;95179.13;5054833;28;20471;-88
2023/01/13 12:02:33;;;;;;;6.47;5.10;;;;;;;8.15;83.07;95175.91;5054554;28;20999;-88
2023/01/13 12:05:08;;;;;;;6.30;5.70;;;;;;;8.05;83.08;95174.84;5054967;28;20452;-88
2023/01/13 12:07:43;;;;;;;7.60;5.93;;;;;;;8.02;83.04;95181.13;5054727;28;20967;-88
2023/01/13 12:10:18;;;;;;;8.57;5.27;;;;;;;8.05;83.44;95169.63;5055309;28;20525;-88
2023/01/13 12:12:56;;;;;;;7.67;5.77;;;;;;;8.77;94.08;95165.34;5055169;28;20999;-88
2023/01/13 12:16:07;;;;;;;9.70;5.93;;;;;;;8.40;82.74;95166.34;5051910;28;20456;-88
2023/01/13 12:18:51;;;;;;;10.10;8.10;;;;;;;8.35;82.98;95171.88;5047908;28;20470;-89
2023/01/13 12:21:40;;;;;;;20.83;8.93;;;;;;;8.40;83.50;95169.78;5039476;28;20483;-87
2023/01/13 12:24:18;;;;;;;10.80;7.40;;;;;;;8.29;82.76;95165.28;5052854;28;20505;-87
2023/01/13 12:26:49;;;;;;;7.50;5.70;;;;;;;8.34;83.31;95162.38;5054791;28;20452;-87
2023/01/13 12:29:20;;;;;;;7.57;5.83;;;;;;;8.39;82.98;95160.28;5054834;28;20458;-88
2023/01/13 12:31:49;;;;;;;16.40;8.60;;;;;;;8.40;81.95;95168.97;5054755;28;20970;-87
2023/01/13 12:37:58;;;;;;;11.50;9.77;;;;;;;8.20;82.31;95163.34;5032152;28;21053;-87
2023/01/13 12:40:45;;;;;;;11.73;8.60;;;;;;;8.16;82.92;95166.28;5032112;28;21021;-87
2023/01/13 12:46:38;;;;;;;10.67;6.90;;;;;;;8.24;83.55;95169.16;5032438;28;20485;-87
2023/01/13 12:49:19;;;;;;;11.13;7.37;;;;;;;8.37;83.67;95170.81;5032221;28;20875;-87
2023/01/13 12:52:19;;;;;;;25.20;13.70;;;;;;;8.41;83.22;95170.63;5032210;28;20439;-87
2023/01/13 12:55:09;;;;;;;17.87;9.93;;;;;;;8.49;82.84;95169.13;5032319;28;20436;-88
2023/01/13 12:57:38;;;;;;;8.00;7.10;;;;;;;8.56;83.11;95170.34;5032076;28;20440;-88
2023/01/13 13:00:16;;;;;;;7.43;5.87;;;;;;;8.59;81.21;95170.13;5032146;28;20567;-88
2023/01/13 13:03:04;;;;;;;6.60;5.37;;;;;;;8.57;81.37;95172.00;5039319;28;20443;-87
2023/01/13 13:05:59;;;;;;;9.60;6.30;;;;;;;8.65;81.21;95174.91;5054272;28;20514;-87
2023/01/13 13:09:01;;;;;;;11.90;6.20;;;;;;;8.69;80.64;95175.53;5053883;28;20451;-87
2023/01/13 13:15:01;;;;;;;14.47;8.20;;;;;;;8.78;80.86;95179.25;5012478;28;20429;-88
2023/01/13 13:17:45;;;;;;;8.23;7.27;;;;;;;8.81;81.05;95182.47;4954857;29;20459;-89
2023/01/13 13:20:52;;;;;;;12.10;6.97;;;;;;;8.81;80.50;95182.47;4954519;29;20486;-90